Terminal Aerodrome Forecast
Issued by NWS

Home | Current Version | Previous Version | Text Only | Print | Product List | Glossary On
Versions: 1 2 3 4 5 6 7 8 9 10 11 12 13
619
FTPA31 PHFO 232018 AAA
TAFHJH
TAF AMD
PHJH 232018Z 2320/2418 01022G30KT 5SM -RA BR BKN025 OVC035
      TEMPO 2320/2324 2SM RA BKN010
     FM241000 06022G30KT P6SM VCSH BKN025 OVC035
      AMD NOT SKED 2404/2418=

USA.gov is the U.S. government's official web portal to all federal, state and local government web resources and services.